sensor_id;sensor_type;location;lat;lon;timestamp;temperature;humidity
52787;DHT22;38661;53.152;5.846;2023-04-03T00:01:37;2.70;82.50
52787;DHT22;38661;53.152;5.846;2023-04-03T00:04:04;2.60;82.00
52787;DHT22;38661;53.152;5.846;2023-04-03T00:06:31;2.60;82.00
52787;DHT22;38661;53.152;5.846;2023-04-03T00:08:57;2.60;82.00
52787;DHT22;38661;53.152;5.846;2023-04-03T00:11:23;2.60;81.80
52787;DHT22;38661;53.152;5.846;2023-04-03T00:13:49;2.50;81.70
52787;DHT22;38661;53.152;5.846;2023-04-03T00:16:14;2.50;81.90
52787;DHT22;38661;53.152;5.846;2023-04-03T00:18:41;2.40;82.10
52787;DHT22;38661;53.152;5.846;2023-04-03T00:21:07;2.40;82.10
52787;DHT22;38661;53.152;5.846;2023-04-03T00:23:34;2.30;82.30
52787;DHT22;38661;53.152;5.846;2023-04-03T00:26:00;2.30;82.50
52787;DHT22;38661;53.152;5.846;2023-04-03T00:28:26;2.30;82.70
52787;DHT22;38661;53.152;5.846;2023-04-03T00:30:52;2.30;82.80
52787;DHT22;38661;53.152;5.846;2023-04-03T00:33:18;2.20;82.70
52787;DHT22;38661;53.152;5.846;2023-04-03T00:35:47;2.20;82.50
52787;DHT22;38661;53.152;5.846;2023-04-03T00:38:14;2.10;82.60
52787;DHT22;38661;53.152;5.846;2023-04-03T00:40:44;2.10;83.00
52787;DHT22;38661;53.152;5.846;2023-04-03T00:43:20;2.10;83.20
52787;DHT22;38661;53.152;5.846;2023-04-03T00:45:51;2.10;83.40
52787;DHT22;38661;53.152;5.846;2023-04-03T00:48:20;2.00;83.60
52787;DHT22;38661;53.152;5.846;2023-04-03T00:50:48;2.00;83.70
52787;DHT22;38661;53.152;5.846;2023-04-03T00:53:33;2.00;83.60
52787;DHT22;38661;53.152;5.846;2023-04-03T00:56:01;2.00;83.50
52787;DHT22;38661;53.152;5.846;2023-04-03T00:58:49;1.90;83.70
52787;DHT22;38661;53.152;5.846;2023-04-03T01:01:20;1.90;83.70
52787;DHT22;38661;53.152;5.846;2023-04-03T01:03:47;1.80;83.80
52787;DHT22;38661;53.152;5.846;2023-04-03T01:06:14;1.80;84.10
52787;DHT22;38661;53.152;5.846;2023-04-03T01:08:41;1.80;84.10
52787;DHT22;38661;53.152;5.846;2023-04-03T01:11:07;1.70;84.20
52787;DHT22;38661;53.152;5.846;2023-04-03T01:13:33;1.80;84.30
52787;DHT22;38661;53.152;5.846;2023-04-03T01:16:04;1.80;84.20
52787;DHT22;38661;53.152;5.846;2023-04-03T01:18:31;1.80;84.20
52787;DHT22;38661;53.152;5.846;2023-04-03T01:26:49;1.60;84.30
52787;DHT22;38661;53.152;5.846;2023-04-03T01:29:16;1.60;84.30
52787;DHT22;38661;53.152;5.846;2023-04-03T01:31:58;1.60;84.20
52787;DHT22;38661;53.152;5.846;2023-04-03T01:34:27;1.50;84.20
52787;DHT22;38661;53.152;5.846;2023-04-03T01:36:53;1.50;84.40
52787;DHT22;38661;53.152;5.846;2023-04-03T01:39:20;1.50;84.70
52787;DHT22;38661;53.152;5.846;2023-04-03T01:41:46;1.50;84.70
52787;DHT22;38661;53.152;5.846;2023-04-03T01:44:13;1.50;84.80
52787;DHT22;38661;53.152;5.846;2023-04-03T01:46:38;1.50;84.90
52787;DHT22;38661;53.152;5.846;2023-04-03T01:49:04;1.40;84.90
52787;DHT22;38661;53.152;5.846;2023-04-03T01:51:30;1.40;84.90
52787;DHT22;38661;53.152;5.846;2023-04-03T01:53:56;1.40;84.90
52787;DHT22;38661;53.152;5.846;2023-04-03T01:56:22;1.40;85.30
52787;DHT22;38661;53.152;5.846;2023-04-03T01:58:48;1.40;85.20
52787;DHT22;38661;53.152;5.846;2023-04-03T02:01:13;1.40;85.10
52787;DHT22;38661;53.152;5.846;2023-04-03T02:03:40;1.40;85.10
52787;DHT22;38661;53.152;5.846;2023-04-03T02:06:06;1.40;85.10
52787;DHT22;38661;53.152;5.846;2023-04-03T02:08:31;1.40;85.20
52787;DHT22;38661;53.152;5.846;2023-04-03T02:10:57;1.40;85.00
52787;DHT22;38661;53.152;5.846;2023-04-03T02:13:23;1.40;85.00
52787;DHT22;38661;53.152;5.846;2023-04-03T02:15:49;1.40;84.90
52787;DHT22;38661;53.152;5.846;2023-04-03T02:18:15;1.30;84.80
52787;DHT22;38661;53.152;5.846;2023-04-03T02:20:40;1.40;84.70
52787;DHT22;38661;53.152;5.846;2023-04-03T02:23:06;1.40;84.70
52787;DHT22;38661;53.152;5.846;2023-04-03T02:25:32;1.40;84.40
52787;DHT22;38661;53.152;5.846;2023-04-03T02:27:58;1.30;84.50
52787;DHT22;38661;53.152;5.846;2023-04-03T02:30:23;1.40;84.40
52787;DHT22;38661;53.152;5.846;2023-04-03T02:32:49;1.30;84.50
52787;DHT22;38661;53.152;5.846;2023-04-03T02:35:15;1.40;84.70
52787;DHT22;38661;53.152;5.846;2023-04-03T02:37:41;1.40;84.70
52787;DHT22;38661;53.152;5.846;2023-04-03T02:40:07;1.30;84.60
52787;DHT22;38661;53.152;5.846;2023-04-03T02:42:33;1.40;84.50
52787;DHT22;38661;53.152;5.846;2023-04-03T02:44:58;1.40;84.60
52787;DHT22;38661;53.152;5.846;2023-04-03T02:47:26;1.30;84.50
52787;DHT22;38661;53.152;5.846;2023-04-03T02:49:52;1.30;84.40
52787;DHT22;38661;53.152;5.846;2023-04-03T02:52:18;1.30;84.40
52787;DHT22;38661;53.152;5.846;2023-04-03T02:54:44;1.30;84.50
52787;DHT22;38661;53.152;5.846;2023-04-03T02:57:10;1.30;84.50
52787;DHT22;38661;53.152;5.846;2023-04-03T02:59:36;1.30;84.50
52787;DHT22;38661;53.152;5.846;2023-04-03T03:02:09;1.30;84.80
52787;DHT22;38661;53.152;5.846;2023-04-03T03:04:35;1.20;84.70
52787;DHT22;38661;53.152;5.846;2023-04-03T03:07:01;1.20;84.70
52787;DHT22;38661;53.152;5.846;2023-04-03T03:09:26;1.10;84.60
52787;DHT22;38661;53.152;5.846;2023-04-03T03:11:52;1.10;84.80
52787;DHT22;38661;53.152;5.846;2023-04-03T03:14:18;1.10;84.60
52787;DHT22;38661;53.152;5.846;2023-04-03T03:16:44;1.10;84.60
52787;DHT22;38661;53.152;5.846;2023-04-03T03:19:10;1.10;84.70
52787;DHT22;38661;53.152;5.846;2023-04-03T03:21:36;1.10;84.80
52787;DHT22;38661;53.152;5.846;2023-04-03T03:24:02;1.10;85.00
52787;DHT22;38661;53.152;5.846;2023-04-03T03:26:28;1.10;84.80
52787;DHT22;38661;53.152;5.846;2023-04-03T03:28:53;1.10;84.90
52787;DHT22;38661;53.152;5.846;2023-04-03T03:31:19;1.10;84.90
52787;DHT22;38661;53.152;5.846;2023-04-03T03:33:45;1.00;84.90
52787;DHT22;38661;53.152;5.846;2023-04-03T03:36:11;1.00;84.90
52787;DHT22;38661;53.152;5.846;2023-04-03T03:38:37;1.00;84.90
52787;DHT22;38661;53.152;5.846;2023-04-03T03:41:03;1.00;84.90
52787;DHT22;38661;53.152;5.846;2023-04-03T03:43:29;0.90;84.70
52787;DHT22;38661;53.152;5.846;2023-04-03T03:45:55;0.90;85.10
52787;DHT22;38661;53.152;5.846;2023-04-03T03:48:21;1.00;85.20
52787;DHT22;38661;53.152;5.846;2023-04-03T03:50:48;0.90;85.30
52787;DHT22;38661;53.152;5.846;2023-04-03T03:53:14;0.90;85.20
52787;DHT22;38661;53.152;5.846;2023-04-03T03:55:40;0.90;85.10
52787;DHT22;38661;53.152;5.846;2023-04-03T03:58:06;0.80;85.00
52787;DHT22;38661;53.152;5.846;2023-04-03T04:00:32;0.80;85.00
52787;DHT22;38661;53.152;5.846;2023-04-03T04:02:58;0.80;85.10
52787;DHT22;38661;53.152;5.846;2023-04-03T04:05:23;0.70;85.20
52787;DHT22;38661;53.152;5.846;2023-04-03T04:07:49;0.70;85.10
52787;DHT22;38661;53.152;5.846;2023-04-03T04:10:16;0.70;85.40
52787;DHT22;38661;53.152;5.846;2023-04-03T04:12:42;0.60;85.40
52787;DHT22;38661;53.152;5.846;2023-04-03T04:15:08;0.60;85.10
52787;DHT22;38661;53.152;5.846;2023-04-03T04:17:34;0.60;85.20
52787;DHT22;38661;53.152;5.846;2023-04-03T04:20:01;0.60;85.40
52787;DHT22;38661;53.152;5.846;2023-04-03T04:22:28;0.60;85.40
52787;DHT22;38661;53.152;5.846;2023-04-03T04:24:54;0.60;85.60
52787;DHT22;38661;53.152;5.846;2023-04-03T04:27:19;0.60;85.40
52787;DHT22;38661;53.152;5.846;2023-04-03T04:29:45;0.60;85.30
52787;DHT22;38661;53.152;5.846;2023-04-03T04:32:11;0.50;85.30
52787;DHT22;38661;53.152;5.846;2023-04-03T04:34:37;0.50;85.40
52787;DHT22;38661;53.152;5.846;2023-04-03T04:37:02;0.50;85.40
52787;DHT22;38661;53.152;5.846;2023-04-03T04:39:28;0.50;85.30
52787;DHT22;38661;53.152;5.846;2023-04-03T04:41:54;0.50;85.40
52787;DHT22;38661;53.152;5.846;2023-04-03T04:44:20;0.50;85.40
52787;DHT22;38661;53.152;5.846;2023-04-03T04:46:46;0.50;85.40
52787;DHT22;38661;53.152;5.846;2023-04-03T04:49:11;0.40;85.40
52787;DHT22;38661;53.152;5.846;2023-04-03T04:51:37;0.40;85.50
52787;DHT22;38661;53.152;5.846;2023-04-03T04:54:03;0.40;85.60
52787;DHT22;38661;53.152;5.846;2023-04-03T04:56:29;0.40;85.60
52787;DHT22;38661;53.152;5.846;2023-04-03T04:58:55;0.40;85.80
52787;DHT22;38661;53.152;5.846;2023-04-03T05:01:21;0.40;86.00
52787;DHT22;38661;53.152;5.846;2023-04-03T05:03:47;0.40;86.30
52787;DHT22;38661;53.152;5.846;2023-04-03T05:06:13;0.30;86.40
52787;DHT22;38661;53.152;5.846;2023-04-03T05:08:39;0.30;86.40
52787;DHT22;38661;53.152;5.846;2023-04-03T05:11:05;0.30;86.50
52787;DHT22;38661;53.152;5.846;2023-04-03T05:13:31;0.40;86.50
52787;DHT22;38661;53.152;5.846;2023-04-03T05:15:56;0.30;86.60
52787;DHT22;38661;53.152;5.846;2023-04-03T05:18:22;0.30;86.60
52787;DHT22;38661;53.152;5.846;2023-04-03T05:20:49;0.30;86.50
52787;DHT22;38661;53.152;5.846;2023-04-03T05:23:16;0.30;86.60
52787;DHT22;38661;53.152;5.846;2023-04-03T05:25:42;0.30;86.60
52787;DHT22;38661;53.152;5.846;2023-04-03T05:28:09;0.30;86.60
52787;DHT22;38661;53.152;5.846;2023-04-03T05:30:35;0.30;86.60
52787;DHT22;38661;53.152;5.846;2023-04-03T05:33:01;0.30;86.90
52787;DHT22;38661;53.152;5.846;2023-04-03T05:35:27;0.30;87.00
52787;DHT22;38661;53.152;5.846;2023-04-03T05:37:52;0.30;87.20
52787;DHT22;38661;53.152;5.846;2023-04-03T05:40:18;0.40;87.10
52787;DHT22;38661;53.152;5.846;2023-04-03T05:42:44;0.30;86.90
52787;DHT22;38661;53.152;5.846;2023-04-03T05:45:10;0.40;87.10
52787;DHT22;38661;53.152;5.846;2023-04-03T05:47:36;0.40;87.30
52787;DHT22;38661;53.152;5.846;2023-04-03T05:50:02;0.40;87.10
52787;DHT22;38661;53.152;5.846;2023-04-03T05:52:30;0.40;87.10
52787;DHT22;38661;53.152;5.846;2023-04-03T05:54:56;0.50;87.30
52787;DHT22;38661;53.152;5.846;2023-04-03T05:57:23;0.50;87.80
52787;DHT22;38661;53.152;5.846;2023-04-03T05:59:49;0.50;87.90
52787;DHT22;38661;53.152;5.846;2023-04-03T06:02:21;0.60;87.80
52787;DHT22;38661;53.152;5.846;2023-04-03T06:04:47;0.70;87.70
52787;DHT22;38661;53.152;5.846;2023-04-03T06:07:19;0.70;87.70
52787;DHT22;38661;53.152;5.846;2023-04-03T06:09:47;0.80;87.60
52787;DHT22;38661;53.152;5.846;2023-04-03T06:12:13;0.80;87.60
52787;DHT22;38661;53.152;5.846;2023-04-03T06:14:38;0.90;87.40
52787;DHT22;38661;53.152;5.846;2023-04-03T06:17:05;0.90;87.30
52787;DHT22;38661;53.152;5.846;2023-04-03T06:19:31;1.00;87.40
52787;DHT22;38661;53.152;5.846;2023-04-03T06:21:57;1.10;87.00
52787;DHT22;38661;53.152;5.846;2023-04-03T06:24:23;1.00;86.80
52787;DHT22;38661;53.152;5.846;2023-04-03T06:26:51;1.10;87.00
52787;DHT22;38661;53.152;5.846;2023-04-03T06:29:21;1.20;86.80
52787;DHT22;38661;53.152;5.846;2023-04-03T06:31:47;1.20;86.90
52787;DHT22;38661;53.152;5.846;2023-04-03T06:34:13;1.20;86.40
52787;DHT22;38661;53.152;5.846;2023-04-03T06:36:39;1.30;86.40
52787;DHT22;38661;53.152;5.846;2023-04-03T06:39:06;1.40;86.30
52787;DHT22;38661;53.152;5.846;2023-04-03T06:41:32;1.50;86.30
52787;DHT22;38661;53.152;5.846;2023-04-03T06:43:58;1.50;86.20
52787;DHT22;38661;53.152;5.846;2023-04-03T06:46:25;1.60;86.40
52787;DHT22;38661;53.152;5.846;2023-04-03T06:48:52;1.70;86.00
52787;DHT22;38661;53.152;5.846;2023-04-03T06:51:26;1.70;85.90
52787;DHT22;38661;53.152;5.846;2023-04-03T06:53:54;1.80;85.80
52787;DHT22;38661;53.152;5.846;2023-04-03T06:56:21;1.90;85.60
52787;DHT22;38661;53.152;5.846;2023-04-03T06:58:47;2.00;85.50
52787;DHT22;38661;53.152;5.846;2023-04-03T07:01:14;2.10;85.40
52787;DHT22;38661;53.152;5.846;2023-04-03T07:03:40;2.10;85.30
52787;DHT22;38661;53.152;5.846;2023-04-03T07:06:09;2.20;85.20
52787;DHT22;38661;53.152;5.846;2023-04-03T07:08:36;2.30;85.40
52787;DHT22;38661;53.152;5.846;2023-04-03T07:11:02;2.40;85.20
52787;DHT22;38661;53.152;5.846;2023-04-03T07:13:28;2.50;85.30
52787;DHT22;38661;53.152;5.846;2023-04-03T07:15:54;2.60;85.20
52787;DHT22;38661;53.152;5.846;2023-04-03T07:18:20;2.70;84.80
52787;DHT22;38661;53.152;5.846;2023-04-03T07:20:46;2.80;84.80
52787;DHT22;38661;53.152;5.846;2023-04-03T07:23:12;2.90;84.50
52787;DHT22;38661;53.152;5.846;2023-04-03T07:25:43;3.00;84.40
52787;DHT22;38661;53.152;5.846;2023-04-03T07:28:09;3.10;84.10
52787;DHT22;38661;53.152;5.846;2023-04-03T07:30:41;3.20;84.10
52787;DHT22;38661;53.152;5.846;2023-04-03T07:33:07;3.30;83.30
52787;DHT22;38661;53.152;5.846;2023-04-03T07:35:33;3.40;83.10
52787;DHT22;38661;53.152;5.846;2023-04-03T07:37:59;3.50;83.10
52787;DHT22;38661;53.152;5.846;2023-04-03T07:40:25;3.60;82.30
52787;DHT22;38661;53.152;5.846;2023-04-03T07:42:50;3.70;82.70
52787;DHT22;38661;53.152;5.846;2023-04-03T07:45:16;3.80;82.00
52787;DHT22;38661;53.152;5.846;2023-04-03T07:47:42;3.90;81.50
52787;DHT22;38661;53.152;5.846;2023-04-03T07:50:08;4.00;81.20
52787;DHT22;38661;53.152;5.846;2023-04-03T07:52:34;4.10;81.40
52787;DHT22;38661;53.152;5.846;2023-04-03T07:54:59;4.10;79.40
52787;DHT22;38661;53.152;5.846;2023-04-03T07:57:25;4.20;79.20
52787;DHT22;38661;53.152;5.846;2023-04-03T07:59:51;4.30;78.60
52787;DHT22;38661;53.152;5.846;2023-04-03T08:02:17;4.40;77.10
52787;DHT22;38661;53.152;5.846;2023-04-03T08:04:42;4.50;77.90
52787;DHT22;38661;53.152;5.846;2023-04-03T08:07:08;4.60;77.90
52787;DHT22;38661;53.152;5.846;2023-04-03T08:09:34;4.60;77.60
52787;DHT22;38661;53.152;5.846;2023-04-03T08:12:00;4.80;77.40
52787;DHT22;38661;53.152;5.846;2023-04-03T08:14:26;4.90;76.60
52787;DHT22;38661;53.152;5.846;2023-04-03T08:16:52;4.90;75.90
52787;DHT22;38661;53.152;5.846;2023-04-03T08:19:18;5.00;75.70
52787;DHT22;38661;53.152;5.846;2023-04-03T08:21:44;5.10;75.50
52787;DHT22;38661;53.152;5.846;2023-04-03T08:24:11;5.30;75.60
52787;DHT22;38661;53.152;5.846;2023-04-03T08:26:37;5.40;75.50
52787;DHT22;38661;53.152;5.846;2023-04-03T08:29:03;5.50;75.40
52787;DHT22;38661;53.152;5.846;2023-04-03T08:31:29;5.50;74.00
52787;DHT22;38661;53.152;5.846;2023-04-03T08:33:57;5.60;73.40
52787;DHT22;38661;53.152;5.846;2023-04-03T08:36:26;5.70;71.30
52787;DHT22;38661;53.152;5.846;2023-04-03T08:38:52;5.80;72.30
52787;DHT22;38661;53.152;5.846;2023-04-03T08:46:35;6.10;71.00
52787;DHT22;38661;53.152;5.846;2023-04-03T08:49:04;6.30;71.20
52787;DHT22;38661;53.152;5.846;2023-04-03T08:51:36;6.40;70.40
52787;DHT22;38661;53.152;5.846;2023-04-03T08:54:07;6.50;70.90
52787;DHT22;38661;53.152;5.846;2023-04-03T08:56:41;6.60;69.70
52787;DHT22;38661;53.152;5.846;2023-04-03T08:59:13;6.70;68.90
52787;DHT22;38661;53.152;5.846;2023-04-03T09:01:43;6.70;67.40
52787;DHT22;38661;53.152;5.846;2023-04-03T09:04:12;6.90;67.70
52787;DHT22;38661;53.152;5.846;2023-04-03T09:06:40;7.00;66.90
52787;DHT22;38661;53.152;5.846;2023-04-03T09:14:38;7.20;64.50
52787;DHT22;38661;53.152;5.846;2023-04-03T09:22:32;7.70;65.50
52787;DHT22;38661;53.152;5.846;2023-04-03T09:25:05;7.70;65.00
52787;DHT22;38661;53.152;5.846;2023-04-03T09:27:35;7.70;63.30
52787;DHT22;38661;53.152;5.846;2023-04-03T09:30:01;7.80;63.90
52787;DHT22;38661;53.152;5.846;2023-04-03T09:35:04;8.00;62.40
52787;DHT22;38661;53.152;5.846;2023-04-03T09:37:44;8.00;62.10
52787;DHT22;38661;53.152;5.846;2023-04-03T09:45:50;8.50;63.20
52787;DHT22;38661;53.152;5.846;2023-04-03T09:48:18;8.60;62.60
52787;DHT22;38661;53.152;5.846;2023-04-03T09:55:52;8.90;59.90
52787;DHT22;38661;53.152;5.846;2023-04-03T09:58:31;9.00;61.10
52787;DHT22;38661;53.152;5.846;2023-04-03T10:01:00;9.10;58.90
52787;DHT22;38661;53.152;5.846;2023-04-03T10:03:36;9.30;58.40
52787;DHT22;38661;53.152;5.846;2023-04-03T10:06:24;9.50;57.60
52787;DHT22;38661;53.152;5.846;2023-04-03T10:09:22;9.60;58.10
52787;DHT22;38661;53.152;5.846;2023-04-03T10:12:12;9.70;59.20
52787;DHT22;38661;53.152;5.846;2023-04-03T10:15:00;9.80;55.30
52787;DHT22;38661;53.152;5.846;2023-04-03T10:20:41;10.00;55.70
52787;DHT22;38661;53.152;5.846;2023-04-03T10:34:01;10.50;54.10
52787;DHT22;38661;53.152;5.846;2023-04-03T10:39:30;10.70;50.40
52787;DHT22;38661;53.152;5.846;2023-04-03T10:42:46;10.80;46.40
52787;DHT22;38661;53.152;5.846;2023-04-03T10:47:51;11.00;50.50
52787;DHT22;38661;53.152;5.846;2023-04-03T10:50:43;11.20;50.10
52787;DHT22;38661;53.152;5.846;2023-04-03T10:58:59;11.30;48.80
52787;DHT22;38661;53.152;5.846;2023-04-03T11:01:35;11.40;48.50
52787;DHT22;38661;53.152;5.846;2023-04-03T11:04:04;11.40;46.00
52787;DHT22;38661;53.152;5.846;2023-04-03T11:06:50;11.40;44.70
52787;DHT22;38661;53.152;5.846;2023-04-03T11:09:26;11.40;44.00
52787;DHT22;38661;53.152;5.846;2023-04-03T11:12:17;11.40;46.00
52787;DHT22;38661;53.152;5.846;2023-04-03T11:14:45;11.50;45.40
52787;DHT22;38661;53.152;5.846;2023-04-03T11:22:50;11.70;44.30
52787;DHT22;38661;53.152;5.846;2023-04-03T11:25:23;11.70;43.70
52787;DHT22;38661;53.152;5.846;2023-04-03T11:27:55;11.70;44.40
52787;DHT22;38661;53.152;5.846;2023-04-03T11:33:40;11.80;44.30
52787;DHT22;38661;53.152;5.846;2023-04-03T11:36:33;12.00;45.10
52787;DHT22;38661;53.152;5.846;2023-04-03T11:39:30;12.10;46.30
52787;DHT22;38661;53.152;5.846;2023-04-03T11:42:32;12.30;46.20
52787;DHT22;38661;53.152;5.846;2023-04-03T11:45:59;12.30;41.40
52787;DHT22;38661;53.152;5.846;2023-04-03T11:50:59;12.50;45.10
52787;DHT22;38661;53.152;5.846;2023-04-03T11:53:33;12.50;42.70
52787;DHT22;38661;53.152;5.846;2023-04-03T12:01:47;12.70;42.10
52787;DHT22;38661;53.152;5.846;2023-04-03T12:04:15;12.60;42.30
52787;DHT22;38661;53.152;5.846;2023-04-03T12:06:52;12.70;43.50
52787;DHT22;38661;53.152;5.846;2023-04-03T12:09:34;12.80;42.30
52787;DHT22;38661;53.152;5.846;2023-04-03T12:12:21;12.90;42.50
52787;DHT22;38661;53.152;5.846;2023-04-03T12:14:51;13.00;43.40
52787;DHT22;38661;53.152;5.846;2023-04-03T12:17:25;13.00;41.40
52787;DHT22;38661;53.152;5.846;2023-04-03T12:19:52;13.20;43.90
52787;DHT22;38661;53.152;5.846;2023-04-03T12:22:19;13.20;40.60
52787;DHT22;38661;53.152;5.846;2023-04-03T12:24:51;13.30;41.90
52787;DHT22;38661;53.152;5.846;2023-04-03T12:44:01;13.80;37.70
52787;DHT22;38661;53.152;5.846;2023-04-03T12:46:39;13.70;37.80
52787;DHT22;38661;53.152;5.846;2023-04-03T12:51:48;14.00;38.00
52787;DHT22;38661;53.152;5.846;2023-04-03T12:57:09;14.10;39.80
52787;DHT22;38661;53.152;5.846;2023-04-03T12:59:35;14.30;39.90
52787;DHT22;38661;53.152;5.846;2023-04-03T13:02:03;14.50;41.50
52787;DHT22;38661;53.152;5.846;2023-04-03T13:04:31;14.50;39.80
52787;DHT22;38661;53.152;5.846;2023-04-03T13:06:57;14.50;38.80
52787;DHT22;38661;53.152;5.846;2023-04-03T13:09:31;14.60;38.70
52787;DHT22;38661;53.152;5.846;2023-04-03T13:11:59;14.70;39.60
52787;DHT22;38661;53.152;5.846;2023-04-03T13:14:28;14.70;36.10
52787;DHT22;38661;53.152;5.846;2023-04-03T13:17:00;14.60;36.10
52787;DHT22;38661;53.152;5.846;2023-04-03T13:19:28;14.60;36.30
52787;DHT22;38661;53.152;5.846;2023-04-03T13:22:02;14.70;38.70
52787;DHT22;38661;53.152;5.846;2023-04-03T13:24:31;14.70;38.30
52787;DHT22;38661;53.152;5.846;2023-04-03T13:26:58;14.70;38.90
52787;DHT22;38661;53.152;5.846;2023-04-03T13:29:30;14.90;39.40
52787;DHT22;38661;53.152;5.846;2023-04-03T13:31:58;15.00;36.60
52787;DHT22;38661;53.152;5.846;2023-04-03T13:34:27;15.00;38.70
52787;DHT22;38661;53.152;5.846;2023-04-03T13:39:29;15.10;34.90
52787;DHT22;38661;53.152;5.846;2023-04-03T13:42:01;15.10;38.60
52787;DHT22;38661;53.152;5.846;2023-04-03T13:44:32;15.20;39.40
52787;DHT22;38661;53.152;5.846;2023-04-03T13:47:21;15.20;37.90
52787;DHT22;38661;53.152;5.846;2023-04-03T13:50:13;15.20;36.70
52787;DHT22;38661;53.152;5.846;2023-04-03T13:52:47;15.20;36.60
52787;DHT22;38661;53.152;5.846;2023-04-03T13:57:53;15.30;35.70
52787;DHT22;38661;53.152;5.846;2023-04-03T14:00:47;15.50;37.40
52787;DHT22;38661;53.152;5.846;2023-04-03T14:06:00;15.50;36.50
52787;DHT22;38661;53.152;5.846;2023-04-03T14:08:27;15.30;36.70
52787;DHT22;38661;53.152;5.846;2023-04-03T14:10:53;15.50;38.10
52787;DHT22;38661;53.152;5.846;2023-04-03T14:13:20;15.70;38.40
52787;DHT22;38661;53.152;5.846;2023-04-03T14:15:47;15.70;38.20
52787;DHT22;38661;53.152;5.846;2023-04-03T14:18:16;15.90;38.50
52787;DHT22;38661;53.152;5.846;2023-04-03T14:20:42;16.00;37.90
52787;DHT22;38661;53.152;5.846;2023-04-03T14:23:08;16.00;37.50
52787;DHT22;38661;53.152;5.846;2023-04-03T14:25:34;16.10;37.30
52787;DHT22;38661;53.152;5.846;2023-04-03T14:28:00;16.20;36.80
52787;DHT22;38661;53.152;5.846;2023-04-03T14:30:32;16.10;37.40
52787;DHT22;38661;53.152;5.846;2023-04-03T14:32:59;16.20;38.30
52787;DHT22;38661;53.152;5.846;2023-04-03T14:35:26;16.30;38.10
52787;DHT22;38661;53.152;5.846;2023-04-03T14:37:53;16.40;38.80
52787;DHT22;38661;53.152;5.846;2023-04-03T14:40:26;16.30;37.60
52787;DHT22;38661;53.152;5.846;2023-04-03T14:42:53;16.20;37.20
52787;DHT22;38661;53.152;5.846;2023-04-03T14:45:22;16.20;37.90
52787;DHT22;38661;53.152;5.846;2023-04-03T14:47:53;16.20;37.90
52787;DHT22;38661;53.152;5.846;2023-04-03T14:50:22;16.00;36.40
52787;DHT22;38661;53.152;5.846;2023-04-03T14:52:51;15.80;36.70
52787;DHT22;38661;53.152;5.846;2023-04-03T14:55:21;15.90;37.10
52787;DHT22;38661;53.152;5.846;2023-04-03T14:57:47;15.90;36.70
52787;DHT22;38661;53.152;5.846;2023-04-03T15:00:18;16.10;36.70
52787;DHT22;38661;53.152;5.846;2023-04-03T15:02:45;15.90;35.80
52787;DHT22;38661;53.152;5.846;2023-04-03T15:05:11;15.80;37.50
52787;DHT22;38661;53.152;5.846;2023-04-03T15:07:50;15.70;37.10
52787;DHT22;38661;53.152;5.846;2023-04-03T15:10:22;15.60;37.50
52787;DHT22;38661;53.152;5.846;2023-04-03T15:12:49;15.40;37.70
52787;DHT22;38661;53.152;5.846;2023-04-03T15:15:17;15.40;38.40
52787;DHT22;38661;53.152;5.846;2023-04-03T15:17:43;15.60;39.60
52787;DHT22;38661;53.152;5.846;2023-04-03T15:20:15;15.80;39.70
52787;DHT22;38661;53.152;5.846;2023-04-03T15:22:41;15.90;39.10
52787;DHT22;38661;53.152;5.846;2023-04-03T15:25:07;16.00;38.80
52787;DHT22;38661;53.152;5.846;2023-04-03T15:27:34;16.00;40.00
52787;DHT22;38661;53.152;5.846;2023-04-03T15:30:00;16.00;42.30
52787;DHT22;38661;53.152;5.846;2023-04-03T15:32:25;16.00;42.20
52787;DHT22;38661;53.152;5.846;2023-04-03T15:34:51;16.00;42.70
52787;DHT22;38661;53.152;5.846;2023-04-03T15:37:17;15.90;43.10
52787;DHT22;38661;53.152;5.846;2023-04-03T15:39:42;15.90;41.50
52787;DHT22;38661;53.152;5.846;2023-04-03T15:42:08;15.90;42.60
52787;DHT22;38661;53.152;5.846;2023-04-03T15:44:34;15.70;42.20
52787;DHT22;38661;53.152;5.846;2023-04-03T15:47:01;15.50;41.70
52787;DHT22;38661;53.152;5.846;2023-04-03T15:49:27;15.50;41.60
52787;DHT22;38661;53.152;5.846;2023-04-03T15:51:53;15.30;41.40
52787;DHT22;38661;53.152;5.846;2023-04-03T15:54:19;15.00;40.90
52787;DHT22;38661;53.152;5.846;2023-04-03T15:56:45;14.90;41.70
52787;DHT22;38661;53.152;5.846;2023-04-03T15:59:11;14.80;42.40
52787;DHT22;38661;53.152;5.846;2023-04-03T16:01:37;14.80;42.30
52787;DHT22;38661;53.152;5.846;2023-04-03T16:04:05;14.80;42.50
52787;DHT22;38661;53.152;5.846;2023-04-03T16:06:32;14.80;43.20
52787;DHT22;38661;53.152;5.846;2023-04-03T16:08:59;14.70;43.30
52787;DHT22;38661;53.152;5.846;2023-04-03T16:11:26;14.80;43.30
52787;DHT22;38661;53.152;5.846;2023-04-03T16:13:53;14.70;41.90
52787;DHT22;38661;53.152;5.846;2023-04-03T16:16:19;14.60;42.80
52787;DHT22;38661;53.152;5.846;2023-04-03T16:18:46;14.60;41.70
52787;DHT22;38661;53.152;5.846;2023-04-03T16:21:12;14.50;42.20
52787;DHT22;38661;53.152;5.846;2023-04-03T16:23:39;14.40;42.00
52787;DHT22;38661;53.152;5.846;2023-04-03T16:26:05;14.20;41.90
52787;DHT22;38661;53.152;5.846;2023-04-03T16:28:31;14.00;42.00
52787;DHT22;38661;53.152;5.846;2023-04-03T16:30:57;13.90;42.40
52787;DHT22;38661;53.152;5.846;2023-04-03T16:33:24;13.60;42.10
52787;DHT22;38661;53.152;5.846;2023-04-03T16:35:50;13.60;42.90
52787;DHT22;38661;53.152;5.846;2023-04-03T16:38:17;13.20;41.00
52787;DHT22;38661;53.152;5.846;2023-04-03T16:40:45;12.90;42.90
52787;DHT22;38661;53.152;5.846;2023-04-03T16:43:11;12.70;43.80
52787;DHT22;38661;53.152;5.846;2023-04-03T16:45:37;12.80;44.10
52787;DHT22;38661;53.152;5.846;2023-04-03T16:48:03;13.00;43.80
52787;DHT22;38661;53.152;5.846;2023-04-03T16:50:29;13.00;43.80
52787;DHT22;38661;53.152;5.846;2023-04-03T16:52:55;13.10;43.90
52787;DHT22;38661;53.152;5.846;2023-04-03T16:55:21;13.20;43.60
52787;DHT22;38661;53.152;5.846;2023-04-03T16:57:47;13.30;43.30
52787;DHT22;38661;53.152;5.846;2023-04-03T17:00:13;12.90;44.20
52787;DHT22;38661;53.152;5.846;2023-04-03T17:02:40;12.50;45.70
52787;DHT22;38661;53.152;5.846;2023-04-03T17:05:06;12.00;46.50
52787;DHT22;38661;53.152;5.846;2023-04-03T17:07:32;11.50;47.30
52787;DHT22;38661;53.152;5.846;2023-04-03T17:09:58;11.30;50.80
52787;DHT22;38661;53.152;5.846;2023-04-03T17:12:24;11.00;51.10
52787;DHT22;38661;53.152;5.846;2023-04-03T17:14:50;10.70;52.00
52787;DHT22;38661;53.152;5.846;2023-04-03T17:17:18;10.50;53.10
52787;DHT22;38661;53.152;5.846;2023-04-03T17:19:45;10.30;53.10
52787;DHT22;38661;53.152;5.846;2023-04-03T17:22:11;10.10;53.70
52787;DHT22;38661;53.152;5.846;2023-04-03T17:24:37;9.90;53.90
52787;DHT22;38661;53.152;5.846;2023-04-03T17:27:03;9.60;54.40
52787;DHT22;38661;53.152;5.846;2023-04-03T17:29:29;9.50;54.70
52787;DHT22;38661;53.152;5.846;2023-04-03T17:31:55;9.30;55.50
52787;DHT22;38661;53.152;5.846;2023-04-03T17:34:20;9.30;56.10
52787;DHT22;38661;53.152;5.846;2023-04-03T17:36:46;9.10;55.10